sensor_id;sensor_type;location;lat;lon;timestamp;P1;durP1;ratioP1;P2;durP2;ratioP2
70967;SDS011;58629;48.808;8.820;2022-11-27T00:00:40;9.70;;;5.22;;
70967;SDS011;58629;48.808;8.820;2022-11-27T00:03:05;11.10;;;5.70;;
70967;SDS011;58629;48.808;8.820;2022-11-27T00:05:30;8.47;;;4.50;;
70967;SDS011;58629;48.808;8.820;2022-11-27T00:07:55;8.60;;;4.57;;
70967;SDS011;58629;48.808;8.820;2022-11-27T00:10:21;10.03;;;5.60;;
70967;SDS011;58629;48.808;8.820;2022-11-27T00:12:46;12.03;;;6.40;;
70967;SDS011;58629;48.808;8.820;2022-11-27T00:15:11;12.23;;;6.53;;
70967;SDS011;58629;48.808;8.820;2022-11-27T00:17:36;12.90;;;6.77;;
70967;SDS011;58629;48.808;8.820;2022-11-27T00:20:02;12.27;;;6.70;;
70967;SDS011;58629;48.808;8.820;2022-11-27T00:22:27;12.15;;;6.70;;
70967;SDS011;58629;48.808;8.820;2022-11-27T00:24:53;11.27;;;5.95;;
70967;SDS011;58629;48.808;8.820;2022-11-27T00:27:18;13.05;;;6.68;;
70967;SDS011;58629;48.808;8.820;2022-11-27T00:29:43;10.75;;;5.55;;
70967;SDS011;58629;48.808;8.820;2022-11-27T00:32:09;10.80;;;5.85;;
70967;SDS011;58629;48.808;8.820;2022-11-27T00:34:34;10.27;;;5.40;;
70967;SDS011;58629;48.808;8.820;2022-11-27T00:37:00;12.33;;;6.00;;
70967;SDS011;58629;48.808;8.820;2022-11-27T00:39:25;12.65;;;5.93;;
70967;SDS011;58629;48.808;8.820;2022-11-27T00:41:52;12.82;;;6.65;;
70967;SDS011;58629;48.808;8.820;2022-11-27T00:44:17;11.40;;;5.70;;
70967;SDS011;58629;48.808;8.820;2022-11-27T00:46:42;10.20;;;5.47;;
70967;SDS011;58629;48.808;8.820;2022-11-27T00:49:09;10.27;;;5.77;;
70967;SDS011;58629;48.808;8.820;2022-11-27T00:51:36;10.50;;;5.78;;
70967;SDS011;58629;48.808;8.820;2022-11-27T00:54:01;13.13;;;6.40;;
70967;SDS011;58629;48.808;8.820;2022-11-27T00:56:28;12.40;;;6.20;;
70967;SDS011;58629;48.808;8.820;2022-11-27T00:58:56;14.53;;;6.07;;
70967;SDS011;58629;48.808;8.820;2022-11-27T01:01:26;15.30;;;6.40;;
70967;SDS011;58629;48.808;8.820;2022-11-27T01:03:54;13.38;;;6.03;;
70967;SDS011;58629;48.808;8.820;2022-11-27T01:06:21;10.57;;;5.50;;
70967;SDS011;58629;48.808;8.820;2022-11-27T01:08:46;11.87;;;5.50;;
70967;SDS011;58629;48.808;8.820;2022-11-27T01:11:13;12.27;;;6.50;;
70967;SDS011;58629;48.808;8.820;2022-11-27T01:13:40;10.77;;;4.97;;
70967;SDS011;58629;48.808;8.820;2022-11-27T01:16:08;8.13;;;4.30;;
70967;SDS011;58629;48.808;8.820;2022-11-27T01:18:36;7.93;;;4.22;;
70967;SDS011;58629;48.808;8.820;2022-11-27T01:21:03;7.40;;;3.92;;
70967;SDS011;58629;48.808;8.820;2022-11-27T01:23:29;6.68;;;3.33;;
70967;SDS011;58629;48.808;8.820;2022-11-27T01:25:55;6.82;;;3.28;;
70967;SDS011;58629;48.808;8.820;2022-11-27T01:28:21;8.03;;;3.90;;
70967;SDS011;58629;48.808;8.820;2022-11-27T01:30:48;6.18;;;3.00;;
70967;SDS011;58629;48.808;8.820;2022-11-27T01:33:14;5.87;;;3.20;;
70967;SDS011;58629;48.808;8.820;2022-11-27T01:35:39;9.77;;;4.90;;
70967;SDS011;58629;48.808;8.820;2022-11-27T01:38:04;11.82;;;5.43;;
70967;SDS011;58629;48.808;8.820;2022-11-27T01:40:30;10.43;;;5.53;;
70967;SDS011;58629;48.808;8.820;2022-11-27T01:42:55;9.83;;;5.77;;
70967;SDS011;58629;48.808;8.820;2022-11-27T01:45:20;10.77;;;5.57;;
70967;SDS011;58629;48.808;8.820;2022-11-27T01:47:56;10.55;;;5.70;;
70967;SDS011;58629;48.808;8.820;2022-11-27T01:50:26;10.80;;;5.72;;
70967;SDS011;58629;48.808;8.820;2022-11-27T01:52:56;10.05;;;5.20;;
70967;SDS011;58629;48.808;8.820;2022-11-27T01:55:28;10.60;;;5.38;;
70967;SDS011;58629;48.808;8.820;2022-11-27T01:57:58;8.65;;;4.75;;
70967;SDS011;58629;48.808;8.820;2022-11-27T02:00:28;8.70;;;5.00;;
70967;SDS011;58629;48.808;8.820;2022-11-27T02:02:53;9.95;;;5.05;;
70967;SDS011;58629;48.808;8.820;2022-11-27T02:05:20;8.60;;;4.67;;
70967;SDS011;58629;48.808;8.820;2022-11-27T02:07:47;8.10;;;4.40;;
70967;SDS011;58629;48.808;8.820;2022-11-27T02:10:13;9.38;;;5.10;;
70967;SDS011;58629;48.808;8.820;2022-11-27T02:12:43;10.07;;;5.18;;
70967;SDS011;58629;48.808;8.820;2022-11-27T02:15:25;8.77;;;4.53;;
70967;SDS011;58629;48.808;8.820;2022-11-27T02:18:02;8.38;;;4.15;;
70967;SDS011;58629;48.808;8.820;2022-11-27T02:20:39;7.57;;;4.17;;
70967;SDS011;58629;48.808;8.820;2022-11-27T02:26:05;8.27;;;4.13;;
70967;SDS011;58629;48.808;8.820;2022-11-27T02:37:11;7.03;;;3.67;;
70967;SDS011;58629;48.808;8.820;2022-11-27T02:39:38;6.13;;;3.38;;
70967;SDS011;58629;48.808;8.820;2022-11-27T02:42:14;6.40;;;3.08;;
70967;SDS011;58629;48.808;8.820;2022-11-27T02:44:45;5.38;;;2.95;;
70967;SDS011;58629;48.808;8.820;2022-11-27T02:47:16;5.57;;;2.97;;
70967;SDS011;58629;48.808;8.820;2022-11-27T02:49:43;6.18;;;3.40;;
70967;SDS011;58629;48.808;8.820;2022-11-27T02:52:10;6.75;;;3.50;;
70967;SDS011;58629;48.808;8.820;2022-11-27T02:54:37;7.13;;;3.95;;
70967;SDS011;58629;48.808;8.820;2022-11-27T02:57:05;6.20;;;3.40;;
70967;SDS011;58629;48.808;8.820;2022-11-27T02:59:32;8.00;;;3.50;;
70967;SDS011;58629;48.808;8.820;2022-11-27T03:02:01;5.50;;;2.85;;
70967;SDS011;58629;48.808;8.820;2022-11-27T03:04:35;4.95;;;2.70;;
70967;SDS011;58629;48.808;8.820;2022-11-27T03:07:06;5.13;;;2.65;;
70967;SDS011;58629;48.808;8.820;2022-11-27T03:09:41;7.15;;;3.50;;
70967;SDS011;58629;48.808;8.820;2022-11-27T03:12:10;6.40;;;3.40;;
70967;SDS011;58629;48.808;8.820;2022-11-27T03:14:38;8.35;;;4.25;;
70967;SDS011;58629;48.808;8.820;2022-11-27T03:19:42;8.32;;;4.57;;
70967;SDS011;58629;48.808;8.820;2022-11-27T03:22:12;8.70;;;4.80;;
70967;SDS011;58629;48.808;8.820;2022-11-27T03:24:38;8.73;;;4.30;;
70967;SDS011;58629;48.808;8.820;2022-11-27T03:27:04;7.70;;;4.35;;
70967;SDS011;58629;48.808;8.820;2022-11-27T03:29:38;8.00;;;4.30;;
70967;SDS011;58629;48.808;8.820;2022-11-27T03:32:08;7.80;;;3.60;;
70967;SDS011;58629;48.808;8.820;2022-11-27T03:34:33;6.32;;;3.42;;
70967;SDS011;58629;48.808;8.820;2022-11-27T03:37:00;6.53;;;3.47;;
70967;SDS011;58629;48.808;8.820;2022-11-27T03:39:25;5.75;;;2.92;;
70967;SDS011;58629;48.808;8.820;2022-11-27T03:44:56;6.50;;;3.53;;
70967;SDS011;58629;48.808;8.820;2022-11-27T03:47:39;7.78;;;3.30;;
70967;SDS011;58629;48.808;8.820;2022-11-27T03:50:29;6.63;;;3.50;;
70967;SDS011;58629;48.808;8.820;2022-11-27T03:55:54;7.40;;;4.10;;
70967;SDS011;58629;48.808;8.820;2022-11-27T03:58:40;7.35;;;4.28;;
70967;SDS011;58629;48.808;8.820;2022-11-27T04:01:13;7.38;;;3.95;;
70967;SDS011;58629;48.808;8.820;2022-11-27T04:03:42;7.65;;;4.00;;
70967;SDS011;58629;48.808;8.820;2022-11-27T04:06:07;8.43;;;4.10;;
70967;SDS011;58629;48.808;8.820;2022-11-27T04:08:32;6.83;;;3.80;;
70967;SDS011;58629;48.808;8.820;2022-11-27T04:10:58;9.00;;;4.10;;
70967;SDS011;58629;48.808;8.820;2022-11-27T04:13:23;8.00;;;4.20;;
70967;SDS011;58629;48.808;8.820;2022-11-27T04:15:48;8.07;;;4.20;;
70967;SDS011;58629;48.808;8.820;2022-11-27T04:18:14;9.33;;;4.70;;
70967;SDS011;58629;48.808;8.820;2022-11-27T04:20:39;7.13;;;4.23;;
70967;SDS011;58629;48.808;8.820;2022-11-27T04:23:04;7.57;;;4.10;;
70967;SDS011;58629;48.808;8.820;2022-11-27T04:25:30;7.03;;;3.65;;
70967;SDS011;58629;48.808;8.820;2022-11-27T04:27:55;7.53;;;3.58;;
70967;SDS011;58629;48.808;8.820;2022-11-27T04:30:20;6.35;;;3.63;;
70967;SDS011;58629;48.808;8.820;2022-11-27T04:32:46;6.75;;;3.60;;
70967;SDS011;58629;48.808;8.820;2022-11-27T04:35:11;7.47;;;4.07;;
70967;SDS011;58629;48.808;8.820;2022-11-27T04:37:36;7.33;;;3.87;;
70967;SDS011;58629;48.808;8.820;2022-11-27T04:40:02;6.53;;;3.50;;
70967;SDS011;58629;48.808;8.820;2022-11-27T04:42:28;5.60;;;3.08;;
70967;SDS011;58629;48.808;8.820;2022-11-27T04:44:54;5.50;;;3.00;;
70967;SDS011;58629;48.808;8.820;2022-11-27T04:47:19;5.40;;;3.13;;
70967;SDS011;58629;48.808;8.820;2022-11-27T04:49:45;4.37;;;2.70;;
70967;SDS011;58629;48.808;8.820;2022-11-27T04:52:10;3.90;;;2.10;;
70967;SDS011;58629;48.808;8.820;2022-11-27T04:54:36;4.22;;;2.25;;
70967;SDS011;58629;48.808;8.820;2022-11-27T04:57:01;3.63;;;2.00;;
70967;SDS011;58629;48.808;8.820;2022-11-27T04:59:27;4.35;;;2.25;;
70967;SDS011;58629;48.808;8.820;2022-11-27T05:01:52;4.83;;;2.60;;
70967;SDS011;58629;48.808;8.820;2022-11-27T05:04:18;5.80;;;2.90;;
70967;SDS011;58629;48.808;8.820;2022-11-27T05:06:44;4.35;;;2.38;;
70967;SDS011;58629;48.808;8.820;2022-11-27T05:09:09;4.20;;;2.43;;
70967;SDS011;58629;48.808;8.820;2022-11-27T05:11:34;3.67;;;1.90;;
70967;SDS011;58629;48.808;8.820;2022-11-27T05:13:59;4.13;;;2.33;;
70967;SDS011;58629;48.808;8.820;2022-11-27T05:16:42;6.30;;;3.28;;
70967;SDS011;58629;48.808;8.820;2022-11-27T05:19:09;8.15;;;4.28;;
70967;SDS011;58629;48.808;8.820;2022-11-27T05:21:35;7.37;;;3.87;;
70967;SDS011;58629;48.808;8.820;2022-11-27T05:24:01;7.32;;;4.00;;
70967;SDS011;58629;48.808;8.820;2022-11-27T05:26:26;7.57;;;3.80;;
70967;SDS011;58629;48.808;8.820;2022-11-27T05:28:52;8.00;;;4.13;;
70967;SDS011;58629;48.808;8.820;2022-11-27T05:31:17;7.90;;;4.13;;
70967;SDS011;58629;48.808;8.820;2022-11-27T05:33:42;6.97;;;4.07;;
70967;SDS011;58629;48.808;8.820;2022-11-27T05:36:08;6.97;;;3.90;;
70967;SDS011;58629;48.808;8.820;2022-11-27T05:38:33;7.73;;;3.93;;
70967;SDS011;58629;48.808;8.820;2022-11-27T05:40:58;7.70;;;3.77;;
70967;SDS011;58629;48.808;8.820;2022-11-27T05:43:23;8.27;;;3.97;;
70967;SDS011;58629;48.808;8.820;2022-11-27T05:45:49;8.18;;;4.40;;
70967;SDS011;58629;48.808;8.820;2022-11-27T05:48:14;7.70;;;3.85;;
70967;SDS011;58629;48.808;8.820;2022-11-27T05:50:39;7.95;;;4.13;;
70967;SDS011;58629;48.808;8.820;2022-11-27T05:53:04;7.00;;;4.05;;
70967;SDS011;58629;48.808;8.820;2022-11-27T05:55:30;8.43;;;4.40;;
70967;SDS011;58629;48.808;8.820;2022-11-27T05:57:55;9.00;;;4.53;;
70967;SDS011;58629;48.808;8.820;2022-11-27T06:00:20;7.57;;;4.03;;
70967;SDS011;58629;48.808;8.820;2022-11-27T06:02:46;7.77;;;4.13;;
70967;SDS011;58629;48.808;8.820;2022-11-27T06:05:11;8.17;;;3.97;;
70967;SDS011;58629;48.808;8.820;2022-11-27T06:07:36;7.90;;;3.77;;
70967;SDS011;58629;48.808;8.820;2022-11-27T06:10:02;6.90;;;3.60;;
70967;SDS011;58629;48.808;8.820;2022-11-27T06:12:29;6.95;;;3.50;;
70967;SDS011;58629;48.808;8.820;2022-11-27T06:14:55;6.43;;;3.40;;
70967;SDS011;58629;48.808;8.820;2022-11-27T06:17:20;6.43;;;3.23;;
70967;SDS011;58629;48.808;8.820;2022-11-27T06:19:46;5.37;;;2.73;;
70967;SDS011;58629;48.808;8.820;2022-11-27T06:22:11;5.37;;;2.60;;
70967;SDS011;58629;48.808;8.820;2022-11-27T06:24:36;6.30;;;3.60;;
70967;SDS011;58629;48.808;8.820;2022-11-27T06:27:01;7.47;;;3.97;;
70967;SDS011;58629;48.808;8.820;2022-11-27T06:29:27;8.30;;;4.07;;
70967;SDS011;58629;48.808;8.820;2022-11-27T06:31:52;8.33;;;4.17;;
70967;SDS011;58629;48.808;8.820;2022-11-27T06:34:17;9.43;;;4.20;;
70967;SDS011;58629;48.808;8.820;2022-11-27T06:36:42;7.43;;;4.23;;
70967;SDS011;58629;48.808;8.820;2022-11-27T06:39:08;8.37;;;4.27;;
70967;SDS011;58629;48.808;8.820;2022-11-27T06:41:35;7.75;;;3.92;;
70967;SDS011;58629;48.808;8.820;2022-11-27T06:44:01;6.67;;;4.00;;
70967;SDS011;58629;48.808;8.820;2022-11-27T06:46:26;8.97;;;4.03;;
70967;SDS011;58629;48.808;8.820;2022-11-27T06:48:52;9.18;;;4.80;;
70967;SDS011;58629;48.808;8.820;2022-11-27T06:51:25;7.78;;;4.13;;
70967;SDS011;58629;48.808;8.820;2022-11-27T06:53:52;7.23;;;3.70;;
70967;SDS011;58629;48.808;8.820;2022-11-27T06:56:19;7.13;;;3.47;;
70967;SDS011;58629;48.808;8.820;2022-11-27T06:58:57;7.78;;;4.53;;
70967;SDS011;58629;48.808;8.820;2022-11-27T07:01:25;8.32;;;4.18;;
70967;SDS011;58629;48.808;8.820;2022-11-27T07:03:51;9.32;;;4.15;;
70967;SDS011;58629;48.808;8.820;2022-11-27T07:06:18;6.70;;;3.80;;
70967;SDS011;58629;48.808;8.820;2022-11-27T07:08:45;6.93;;;3.90;;
70967;SDS011;58629;48.808;8.820;2022-11-27T07:11:11;8.32;;;4.00;;
70967;SDS011;58629;48.808;8.820;2022-11-27T07:13:38;8.53;;;4.33;;
70967;SDS011;58629;48.808;8.820;2022-11-27T07:16:05;8.38;;;4.15;;
70967;SDS011;58629;48.808;8.820;2022-11-27T07:18:36;7.70;;;4.20;;
70967;SDS011;58629;48.808;8.820;2022-11-27T07:21:04;8.02;;;4.45;;
70967;SDS011;58629;48.808;8.820;2022-11-27T07:23:30;21.25;;;9.40;;
70967;SDS011;58629;48.808;8.820;2022-11-27T07:25:55;26.20;;;12.13;;
70967;SDS011;58629;48.808;8.820;2022-11-27T07:28:20;17.17;;;8.73;;
70967;SDS011;58629;48.808;8.820;2022-11-27T07:30:52;18.63;;;8.83;;
70967;SDS011;58629;48.808;8.820;2022-11-27T07:33:21;10.70;;;5.78;;
70967;SDS011;58629;48.808;8.820;2022-11-27T07:35:47;9.98;;;4.82;;
70967;SDS011;58629;48.808;8.820;2022-11-27T07:38:12;7.68;;;4.05;;
70967;SDS011;58629;48.808;8.820;2022-11-27T07:40:37;7.50;;;4.10;;
70967;SDS011;58629;48.808;8.820;2022-11-27T07:43:03;8.60;;;4.50;;
70967;SDS011;58629;48.808;8.820;2022-11-27T07:45:28;6.63;;;3.80;;
70967;SDS011;58629;48.808;8.820;2022-11-27T07:47:53;8.07;;;4.33;;
70967;SDS011;58629;48.808;8.820;2022-11-27T07:50:19;9.03;;;4.47;;
70967;SDS011;58629;48.808;8.820;2022-11-27T07:52:44;9.27;;;4.90;;
70967;SDS011;58629;48.808;8.820;2022-11-27T07:55:09;10.73;;;5.03;;
70967;SDS011;58629;48.808;8.820;2022-11-27T07:57:35;9.17;;;4.70;;
70967;SDS011;58629;48.808;8.820;2022-11-27T08:00:00;9.87;;;4.77;;
70967;SDS011;58629;48.808;8.820;2022-11-27T08:02:25;8.93;;;4.47;;
70967;SDS011;58629;48.808;8.820;2022-11-27T08:04:50;7.70;;;3.90;;
70967;SDS011;58629;48.808;8.820;2022-11-27T08:07:16;7.17;;;3.77;;
70967;SDS011;58629;48.808;8.820;2022-11-27T08:09:41;12.30;;;5.65;;
70967;SDS011;58629;48.808;8.820;2022-11-27T08:12:06;9.02;;;4.30;;
70967;SDS011;58629;48.808;8.820;2022-11-27T08:14:32;8.30;;;4.20;;
70967;SDS011;58629;48.808;8.820;2022-11-27T08:16:57;7.43;;;3.80;;
70967;SDS011;58629;48.808;8.820;2022-11-27T08:19:23;9.50;;;3.93;;
70967;SDS011;58629;48.808;8.820;2022-11-27T08:21:48;8.57;;;3.97;;
70967;SDS011;58629;48.808;8.820;2022-11-27T08:24:13;7.32;;;4.10;;
70967;SDS011;58629;48.808;8.820;2022-11-27T08:26:39;7.80;;;4.23;;
70967;SDS011;58629;48.808;8.820;2022-11-27T08:29:04;5.93;;;3.70;;
70967;SDS011;58629;48.808;8.820;2022-11-27T08:31:30;7.07;;;3.80;;
70967;SDS011;58629;48.808;8.820;2022-11-27T08:33:56;7.72;;;4.55;;
70967;SDS011;58629;48.808;8.820;2022-11-27T08:36:23;9.00;;;4.90;;
70967;SDS011;58629;48.808;8.820;2022-11-27T08:38:51;9.75;;;5.40;;
70967;SDS011;58629;48.808;8.820;2022-11-27T08:41:17;8.38;;;4.90;;
70967;SDS011;58629;48.808;8.820;2022-11-27T08:43:42;7.60;;;4.67;;
70967;SDS011;58629;48.808;8.820;2022-11-27T08:46:08;8.40;;;4.37;;
70967;SDS011;58629;48.808;8.820;2022-11-27T08:48:34;8.13;;;4.70;;
70967;SDS011;58629;48.808;8.820;2022-11-27T08:51:03;8.30;;;4.07;;
70967;SDS011;58629;48.808;8.820;2022-11-27T08:53:30;6.13;;;3.70;;
70967;SDS011;58629;48.808;8.820;2022-11-27T08:56:03;6.05;;;3.30;;
70967;SDS011;58629;48.808;8.820;2022-11-27T08:58:29;6.47;;;3.60;;
70967;SDS011;58629;48.808;8.820;2022-11-27T09:00:55;11.10;;;4.60;;
70967;SDS011;58629;48.808;8.820;2022-11-27T09:03:20;12.43;;;5.33;;
70967;SDS011;58629;48.808;8.820;2022-11-27T09:05:45;13.10;;;6.03;;
70967;SDS011;58629;48.808;8.820;2022-11-27T09:08:10;11.70;;;5.53;;
70967;SDS011;58629;48.808;8.820;2022-11-27T09:10:40;9.25;;;4.65;;
70967;SDS011;58629;48.808;8.820;2022-11-27T09:13:05;9.00;;;4.50;;
70967;SDS011;58629;48.808;8.820;2022-11-27T09:15:31;9.97;;;4.50;;
70967;SDS011;58629;48.808;8.820;2022-11-27T09:17:56;9.57;;;4.85;;
70967;SDS011;58629;48.808;8.820;2022-11-27T09:20:21;7.25;;;3.60;;
70967;SDS011;58629;48.808;8.820;2022-11-27T09:22:47;5.93;;;3.20;;
70967;SDS011;58629;48.808;8.820;2022-11-27T09:25:12;8.30;;;4.10;;
70967;SDS011;58629;48.808;8.820;2022-11-27T09:27:37;7.10;;;3.73;;
70967;SDS011;58629;48.808;8.820;2022-11-27T09:30:04;9.60;;;4.27;;
70967;SDS011;58629;48.808;8.820;2022-11-27T09:32:31;8.70;;;4.05;;
70967;SDS011;58629;48.808;8.820;2022-11-27T09:34:56;8.10;;;3.80;;
70967;SDS011;58629;48.808;8.820;2022-11-27T09:37:21;8.40;;;3.57;;
70967;SDS011;58629;48.808;8.820;2022-11-27T09:39:47;7.35;;;3.90;;
70967;SDS011;58629;48.808;8.820;2022-11-27T09:42:15;6.63;;;3.90;;
70967;SDS011;58629;48.808;8.820;2022-11-27T09:44:59;7.80;;;3.80;;
70967;SDS011;58629;48.808;8.820;2022-11-27T09:47:30;5.72;;;3.60;;
70967;SDS011;58629;48.808;8.820;2022-11-27T09:49:58;5.45;;;2.80;;
70967;SDS011;58629;48.808;8.820;2022-11-27T09:55:30;4.47;;;2.42;;
70967;SDS011;58629;48.808;8.820;2022-11-27T10:00:33;3.75;;;2.00;;
70967;SDS011;58629;48.808;8.820;2022-11-27T10:02:59;4.23;;;2.30;;
70967;SDS011;58629;48.808;8.820;2022-11-27T10:05:25;3.17;;;2.00;;
70967;SDS011;58629;48.808;8.820;2022-11-27T10:13:34;3.20;;;2.00;;
70967;SDS011;58629;48.808;8.820;2022-11-27T10:16:21;2.58;;;1.80;;
70967;SDS011;58629;48.808;8.820;2022-11-27T10:18:58;2.83;;;1.63;;
70967;SDS011;58629;48.808;8.820;2022-11-27T10:21:41;4.15;;;2.10;;
70967;SDS011;58629;48.808;8.820;2022-11-27T10:24:22;2.70;;;1.90;;
70967;SDS011;58629;48.808;8.820;2022-11-27T10:27:00;4.65;;;2.45;;
70967;SDS011;58629;48.808;8.820;2022-11-27T10:29:33;3.15;;;2.10;;
70967;SDS011;58629;48.808;8.820;2022-11-27T10:32:24;3.95;;;1.95;;
70967;SDS011;58629;48.808;8.820;2022-11-27T10:34:54;3.92;;;2.13;;
70967;SDS011;58629;48.808;8.820;2022-11-27T10:37:29;3.10;;;1.73;;
70967;SDS011;58629;48.808;8.820;2022-11-27T10:40:05;2.08;;;1.50;;
70967;SDS011;58629;48.808;8.820;2022-11-27T10:43:28;2.58;;;1.50;;
70967;SDS011;58629;48.808;8.820;2022-11-27T10:48:16;3.40;;;2.05;;
70967;SDS011;58629;48.808;8.820;2022-11-27T10:50:42;3.70;;;1.87;;
70967;SDS011;58629;48.808;8.820;2022-11-27T10:53:10;3.65;;;1.90;;
70967;SDS011;58629;48.808;8.820;2022-11-27T10:56:06;3.17;;;2.13;;
70967;SDS011;58629;48.808;8.820;2022-11-27T11:01:43;3.40;;;1.90;;
70967;SDS011;58629;48.808;8.820;2022-11-27T11:04:11;5.50;;;2.67;;
70967;SDS011;58629;48.808;8.820;2022-11-27T11:06:39;5.03;;;2.50;;
70967;SDS011;58629;48.808;8.820;2022-11-27T11:09:21;3.87;;;2.40;;
70967;SDS011;58629;48.808;8.820;2022-11-27T11:11:49;3.90;;;2.10;;
70967;SDS011;58629;48.808;8.820;2022-11-27T11:14:16;3.35;;;1.90;;
70967;SDS011;58629;48.808;8.820;2022-11-27T11:16:49;2.63;;;1.70;;
70967;SDS011;58629;48.808;8.820;2022-11-27T11:19:23;2.03;;;1.37;;
70967;SDS011;58629;48.808;8.820;2022-11-27T11:21:57;3.60;;;1.90;;
70967;SDS011;58629;48.808;8.820;2022-11-27T11:24:26;2.35;;;1.63;;
70967;SDS011;58629;48.808;8.820;2022-11-27T11:26:54;3.03;;;1.65;;
70967;SDS011;58629;48.808;8.820;2022-11-27T11:31:54;2.00;;;1.30;;
70967;SDS011;58629;48.808;8.820;2022-11-27T11:34:25;2.20;;;1.40;;
70967;SDS011;58629;48.808;8.820;2022-11-27T11:36:54;2.08;;;1.30;;
70967;SDS011;58629;48.808;8.820;2022-11-27T11:39:24;3.47;;;1.85;;
70967;SDS011;58629;48.808;8.820;2022-11-27T11:41:51;3.25;;;2.10;;
70967;SDS011;58629;48.808;8.820;2022-11-27T11:44:21;3.23;;;1.73;;
70967;SDS011;58629;48.808;8.820;2022-11-27T11:46:53;3.20;;;2.10;;
70967;SDS011;58629;48.808;8.820;2022-11-27T11:49:22;2.72;;;1.50;;
70967;SDS011;58629;48.808;8.820;2022-11-27T11:51:54;2.90;;;1.60;;
70967;SDS011;58629;48.808;8.820;2022-11-27T11:54:30;2.95;;;1.45;;
70967;SDS011;58629;48.808;8.820;2022-11-27T11:57:14;3.05;;;1.77;;
70967;SDS011;58629;48.808;8.820;2022-11-27T11:59:49;3.17;;;2.10;;
70967;SDS011;58629;48.808;8.820;2022-11-27T12:13:35;3.65;;;2.15;;
70967;SDS011;58629;48.808;8.820;2022-11-27T12:21:53;4.13;;;2.00;;
70967;SDS011;58629;48.808;8.820;2022-11-27T12:24:47;3.25;;;2.10;;
70967;SDS011;58629;48.808;8.820;2022-11-27T12:33:23;3.40;;;2.40;;
70967;SDS011;58629;48.808;8.820;2022-11-27T12:41:28;2.97;;;1.90;;
70967;SDS011;58629;48.808;8.820;2022-11-27T12:43:54;3.35;;;2.20;;
70967;SDS011;58629;48.808;8.820;2022-11-27T12:49:11;3.72;;;2.22;;
70967;SDS011;58629;48.808;8.820;2022-11-27T12:51:54;4.70;;;2.30;;
70967;SDS011;58629;48.808;8.820;2022-11-27T12:54:55;3.43;;;2.20;;
70967;SDS011;58629;48.808;8.820;2022-11-27T13:00:25;4.43;;;2.53;;
70967;SDS011;58629;48.808;8.820;2022-11-27T13:05:31;4.65;;;2.55;;
70967;SDS011;58629;48.808;8.820;2022-11-27T13:08:10;4.30;;;2.10;;
70967;SDS011;58629;48.808;8.820;2022-11-27T13:10:52;2.75;;;2.10;;
70967;SDS011;58629;48.808;8.820;2022-11-27T13:13:37;3.53;;;2.10;;
70967;SDS011;58629;48.808;8.820;2022-11-27T13:16:10;3.28;;;2.20;;
70967;SDS011;58629;48.808;8.820;2022-11-27T13:18:53;3.60;;;2.17;;
70967;SDS011;58629;48.808;8.820;2022-11-27T13:21:26;4.73;;;2.90;;
70967;SDS011;58629;48.808;8.820;2022-11-27T13:23:54;6.55;;;2.80;;
70967;SDS011;58629;48.808;8.820;2022-11-27T13:26:26;3.42;;;2.10;;
70967;SDS011;58629;48.808;8.820;2022-11-27T13:28:57;3.40;;;2.10;;
70967;SDS011;58629;48.808;8.820;2022-11-27T13:31:27;2.85;;;2.00;;
70967;SDS011;58629;48.808;8.820;2022-11-27T13:33:58;3.03;;;2.10;;
70967;SDS011;58629;48.808;8.820;2022-11-27T13:36:29;3.33;;;1.90;;
70967;SDS011;58629;48.808;8.820;2022-11-27T13:38:59;2.70;;;1.73;;
70967;SDS011;58629;48.808;8.820;2022-11-27T13:41:36;2.42;;;1.90;;
70967;SDS011;58629;48.808;8.820;2022-11-27T13:44:04;2.90;;;1.88;;
70967;SDS011;58629;48.808;8.820;2022-11-27T13:46:45;6.43;;;2.17;;
70967;SDS011;58629;48.808;8.820;2022-11-27T13:49:28;4.55;;;2.17;;
70967;SDS011;58629;48.808;8.820;2022-11-27T13:52:02;5.43;;;2.38;;
70967;SDS011;58629;48.808;8.820;2022-11-27T13:54:30;4.25;;;2.00;;
70967;SDS011;58629;48.808;8.820;2022-11-27T13:56:55;3.87;;;1.90;;
70967;SDS011;58629;48.808;8.820;2022-11-27T13:59:22;3.10;;;1.90;;
70967;SDS011;58629;48.808;8.820;2022-11-27T14:01:55;2.17;;;1.50;;
70967;SDS011;58629;48.808;8.820;2022-11-27T14:04:22;2.22;;;1.30;;
70967;SDS011;58629;48.808;8.820;2022-11-27T14:06:53;2.00;;;1.30;;
70967;SDS011;58629;48.808;8.820;2022-11-27T14:09:30;2.50;;;1.50;;
70967;SDS011;58629;48.808;8.820;2022-11-27T14:11:58;1.98;;;1.33;;
70967;SDS011;58629;48.808;8.820;2022-11-27T14:14:24;1.90;;;1.40;;
70967;SDS011;58629;48.808;8.820;2022-11-27T14:16:59;1.88;;;1.35;;
70967;SDS011;58629;48.808;8.820;2022-11-27T14:19:42;2.13;;;1.30;;
70967;SDS011;58629;48.808;8.820;2022-11-27T14:22:16;3.05;;;1.55;;
70967;SDS011;58629;48.808;8.820;2022-11-27T14:24:57;2.15;;;1.20;;
70967;SDS011;58629;48.808;8.820;2022-11-27T14:27:24;2.00;;;1.30;;
70967;SDS011;58629;48.808;8.820;2022-11-27T14:29:52;2.60;;;1.30;;
70967;SDS011;58629;48.808;8.820;2022-11-27T14:32:18;2.08;;;1.25;;
70967;SDS011;58629;48.808;8.820;2022-11-27T14:34:45;1.88;;;1.00;;
70967;SDS011;58629;48.808;8.820;2022-11-27T14:37:24;2.47;;;1.10;;
70967;SDS011;58629;48.808;8.820;2022-11-27T14:39:51;2.72;;;1.85;;
70967;SDS011;58629;48.808;8.820;2022-11-27T14:42:21;8.70;;;4.03;;
70967;SDS011;58629;48.808;8.820;2022-11-27T14:44:48;9.38;;;5.20;;
70967;SDS011;58629;48.808;8.820;2022-11-27T14:47:24;6.28;;;3.50;;
70967;SDS011;58629;48.808;8.820;2022-11-27T14:49:53;3.93;;;2.50;;
70967;SDS011;58629;48.808;8.820;2022-11-27T14:52:19;4.78;;;2.72;;
70967;SDS011;58629;48.808;8.820;2022-11-27T14:54:45;6.30;;;2.72;;
70967;SDS011;58629;48.808;8.820;2022-11-27T14:57:13;5.87;;;3.17;;
70967;SDS011;58629;48.808;8.820;2022-11-27T14:59:42;5.53;;;3.40;;
70967;SDS011;58629;48.808;8.820;2022-11-27T15:04:39;9.20;;;4.90;;
70967;SDS011;58629;48.808;8.820;2022-11-27T15:07:22;7.63;;;4.30;;
70967;SDS011;58629;48.808;8.820;2022-11-27T15:09:53;8.98;;;4.85;;
70967;SDS011;58629;48.808;8.820;2022-11-27T15:15:01;8.88;;;4.57;;
70967;SDS011;58629;48.808;8.820;2022-11-27T15:17:28;8.30;;;4.40;;
70967;SDS011;58629;48.808;8.820;2022-11-27T15:19:57;5.50;;;3.57;;
70967;SDS011;58629;48.808;8.820;2022-11-27T15:22:23;5.82;;;3.65;;
70967;SDS011;58629;48.808;8.820;2022-11-27T15:24:59;5.50;;;3.58;;
70967;SDS011;58629;48.808;8.820;2022-11-27T15:27:31;6.27;;;3.83;;
70967;SDS011;58629;48.808;8.820;2022-11-27T15:29:58;5.70;;;3.28;;
70967;SDS011;58629;48.808;8.820;2022-11-27T15:32:26;5.63;;;2.90;;
70967;SDS011;58629;48.808;8.820;2022-11-27T15:34:58;4.95;;;2.70;;
70967;SDS011;58629;48.808;8.820;2022-11-27T15:37:30;5.07;;;2.60;;
70967;SDS011;58629;48.808;8.820;2022-11-27T15:39:58;3.88;;;2.33;;
70967;SDS011;58629;48.808;8.820;2022-11-27T15:42:25;4.23;;;2.60;;
70967;SDS011;58629;48.808;8.820;2022-11-27T15:44:52;5.82;;;2.80;;
70967;SDS011;58629;48.808;8.820;2022-11-27T15:49:51;3.95;;;2.38;;
70967;SDS011;58629;48.808;8.820;2022-11-27T15:52:17;3.70;;;2.20;;
70967;SDS011;58629;48.808;8.820;2022-11-27T15:54:43;4.23;;;2.20;;
70967;SDS011;58629;48.808;8.820;2022-11-27T15:57:08;3.78;;;2.20;;
70967;SDS011;58629;48.808;8.820;2022-11-27T15:59:33;3.80;;;2.40;;
70967;SDS011;58629;48.808;8.820;2022-11-27T16:01:59;3.83;;;2.30;;
70967;SDS011;58629;48.808;8.820;2022-11-27T16:04:24;4.00;;;2.60;;
70967;SDS011;58629;48.808;8.820;2022-11-27T16:06:49;4.10;;;2.40;;
70967;SDS011;58629;48.808;8.820;2022-11-27T16:09:15;4.80;;;2.60;;
70967;SDS011;58629;48.808;8.820;2022-11-27T16:11:40;4.70;;;3.13;;
70967;SDS011;58629;48.808;8.820;2022-11-27T16:14:05;6.80;;;3.80;;
70967;SDS011;58629;48.808;8.820;2022-11-27T16:16:31;6.10;;;3.70;;
70967;SDS011;58629;48.808;8.820;2022-11-27T16:19:00;8.00;;;4.80;;